Airfield :
LOGIN :

Register | Disclaimer

   EN    FR    IT 

 










Legend :    VFR   Marginal VFR   IFR   Intensive IFR   Very Intensive IFR
Visi :
Ceiling :
>= 8 km
>= 3000ft
5 to 8 km
1000 to 3000 ft
1500m to 5 km
500 to 1000 ft
800 to 1500m
200 to 500 ft
< 800m
< 200 ft
Symbols :   Thunderstorms  Fog  Heavy snow  Heavy precipitations  Wind > 20 kt
SIGMETs :     Misc.  Thunderstorms  Icing  Turbulence  Mountain Waves  Volcanic Ashes






- Airport Elevation : 359 ft
- IATA code : BVA


LFOB - Beauvais

CURRENT METAR :
  • 070730Z AUTO 33013KT 9999 FEW023 OVC035 19/14 Q1026 NOSIG

EXPIRED METARs :
  • 070700Z AUTO 33012KT 9999 BKN025 BKN033 19/14 Q1025 TEMPO BKN014
  • 070630Z AUTO 31009KT 9999 BKN037 OVC044 18/14 Q1025 TEMPO BKN014
  • 070600Z AUTO 30009KT 9999 FEW046 17/14 Q1025 TEMPO BKN014
  • 070530Z AUTO 30010KT 9999 BKN047 17/14 Q1025 TEMPO BKN014
  • 070500Z AUTO 31009KT 9999 OVC046 16/14 Q1025 TEMPO BKN014

TAF TAF LFOB
Valid from the 07 at 06:00 until the 08 at 06:00 UTC


070500Z 0706/0806 30010KT CAVOK
PROB40
TEMPO 0706/0708 BKN014
BECMG 0712/0714 01012KT
ATIS : +33 3 44 11 49 28



MET'MAP, your aeronautical weather chart ! - Copyright ORBIFLY December 2007 - Disclaimer

ORBIFLY MET'MAP TEAM :

Programming & Development : Alexandra Zaïnal
Original concept : Baudouin d'Aumeries
Technical & hardware support : Manuel Goepfert
Assistance : Marc-Olivier Méhu




SOURCES & CREDITS :

   NOAA